Time;durP1;ratioP1;P1;durP2;ratioP2;P2;SDS_P1;SDS_P2;PMS_P1;PMS_P2;Temp;Humidity;BMP_temperature;BMP_pressure;BME280_temperature;BME280_humidity;BME280_pressure;Samples;Min_cycle;Max_cycle;Signal;HPM_P1;HPM_P2
2021/03/23 00:00:32;;;;;;;10.80;3.20;;;17.90;53.30;;;;;;1047644;28;20466;-74
2021/03/23 00:01:06;;;;;;;;;;;17.90;53.00;;;;;;1045621;28;20026;-74
2021/03/23 00:01:38;;;;;;;12.40;3.45;;;17.90;53.10;;;;;;1046318;28;19916;-73
2021/03/23 00:02:11;;;;;;;10.25;3.10;;;17.90;53.30;;;;;;1046012;28;20025;-74
2021/03/23 00:02:49;;;;;;;8.25;2.97;;;17.80;53.40;;;;;;1048360;28;20466;-74
2021/03/23 00:03:27;;;;;;;10.00;3.47;;;17.80;53.70;;;;;;1047062;28;20028;-74
2021/03/23 00:03:59;;;;;;;11.48;3.40;;;17.80;53.60;;;;;;1048993;28;20548;-74
2021/03/23 00:04:30;;;;;;;11.68;3.15;;;17.80;53.50;;;;;;1047895;28;20029;-73
2021/03/23 00:05:04;;;;;;;9.00;3.28;;;17.80;53.50;;;;;;1050251;28;20042;-74
2021/03/23 00:05:36;;;;;;;11.15;3.33;;;17.80;53.60;;;;;;1050296;28;20351;-74
2021/03/23 00:06:09;;;;;;;12.90;3.50;;;17.80;53.50;;;;;;1046816;28;20049;-73
2021/03/23 00:06:40;;;;;;;14.63;3.70;;;17.80;53.40;;;;;;1047169;28;20269;-73
2021/03/23 00:07:12;;;;;;;9.73;3.20;;;17.90;53.40;;;;;;1047611;28;20100;-73
2021/03/23 00:07:43;;;;;;;11.35;3.17;;;17.80;53.60;;;;;;1047026;28;20017;-74
2021/03/23 00:08:44;;;;;;;11.77;3.55;;;17.80;54.00;;;;;;1043207;28;20459;-73
2021/03/23 00:09:16;;;;;;;12.45;3.08;;;17.80;53.60;;;;;;1029420;28;20042;-74
2021/03/23 00:09:48;;;;;;;9.80;3.10;;;17.80;53.40;;;;;;1045217;28;21354;-74
2021/03/23 00:10:23;;;;;;;9.93;3.38;;;17.80;53.20;;;;;;1048458;28;20366;-74
2021/03/23 00:10:57;;;;;;;11.80;3.20;;;17.90;53.20;;;;;;1052081;28;20020;-73
2021/03/23 00:11:32;;;;;;;10.05;3.17;;;17.80;53.30;;;;;;1051045;28;20111;-74
2021/03/23 00:12:04;;;;;;;9.50;3.10;;;17.80;53.40;;;;;;1052879;28;20035;-74
2021/03/23 00:12:37;;;;;;;10.95;3.05;;;17.70;53.60;;;;;;1046371;28;20009;-73
2021/03/23 00:13:08;;;;;;;10.85;3.00;;;17.70;53.60;;;;;;1044181;28;20017;-74
2021/03/23 00:13:41;;;;;;;10.68;3.20;;;17.70;53.70;;;;;;1041911;28;20017;-74
2021/03/23 00:14:14;;;;;;;11.57;3.42;;;17.70;53.80;;;;;;1044244;28;20013;-73
2021/03/23 00:14:45;;;;;;;11.15;3.25;;;17.70;53.40;;;;;;1045322;28;20024;-74
2021/03/23 00:15:18;;;;;;;11.98;3.42;;;17.70;53.60;;;;;;1047387;28;20482;-74
2021/03/23 00:15:50;;;;;;;12.35;3.20;;;17.70;53.30;;;;;;1050972;28;20057;-73
2021/03/23 00:16:27;;;;;;;9.30;3.58;;;17.70;53.20;;;;;;1050644;28;20099;-73
2021/03/23 00:16:58;;;;;;;13.98;3.50;;;17.60;53.30;;;;;;1052248;28;20012;-73
2021/03/23 00:17:30;;;;;;;10.90;3.10;;;17.60;53.50;;;;;;1049535;28;20099;-74
2021/03/23 00:18:01;;;;;;;11.50;3.10;;;17.60;53.50;;;;;;1046381;28;20017;-73
2021/03/23 00:18:33;;;;;;;10.38;3.20;;;17.60;53.50;;;;;;1043797;28;20013;-74
2021/03/23 00:19:05;;;;;;;13.60;3.60;;;17.60;53.60;;;;;;1042805;28;20410;-74
2021/03/23 00:19:37;;;;;;;8.18;3.10;;;17.60;53.60;;;;;;1047119;28;20031;-73
2021/03/23 00:20:11;;;;;;;8.60;3.10;;;17.60;53.40;;;;;;1049498;28;20011;-73
2021/03/23 00:20:43;;;;;;;10.88;3.30;;;17.60;53.30;;;;;;1051360;28;20004;-73
2021/03/23 00:21:15;;;;;;;10.35;3.42;;;17.60;53.40;;;;;;1049863;28;20062;-73
2021/03/23 00:21:47;;;;;;;11.38;3.38;;;17.70;53.50;;;;;;1047190;28;20012;-74
2021/03/23 00:22:18;;;;;;;10.63;3.00;;;17.60;53.30;;;;;;1047474;28;20013;-73
2021/03/23 00:22:49;;;;;;;9.20;3.20;;;17.70;53.50;;;;;;1048903;28;20104;-73
2021/03/23 00:23:21;;;;;;;11.32;3.00;;;17.70;53.20;;;;;;1045155;28;20470;-73
2021/03/23 00:23:53;;;;;;;9.02;3.20;;;17.70;53.30;;;;;;1048022;28;20078;-73
2021/03/23 00:24:24;;;;;;;15.13;3.20;;;17.60;53.20;;;;;;1048113;28;20008;-73
2021/03/23 00:24:56;;;;;;;7.45;2.92;;;17.60;53.20;;;;;;1044117;28;20043;-72
2021/03/23 00:25:27;;;;;;;10.98;3.03;;;17.60;53.40;;;;;;1046887;28;20021;-73
2021/03/23 00:25:58;;;;;;;11.13;3.25;;;17.60;53.50;;;;;;1045807;28;20485;-72
2021/03/23 00:26:30;;;;;;;11.77;3.00;;;17.60;53.70;;;;;;1049028;28;20359;-73
2021/03/23 00:27:02;;;;;;;11.77;3.35;;;17.60;53.70;;;;;;1048415;28;20019;-73
2021/03/23 00:27:34;;;;;;;11.75;3.28;;;17.60;53.60;;;;;;1043872;28;20028;-72
2021/03/23 00:28:07;;;;;;;9.55;3.20;;;17.60;53.60;;;;;;1047419;28;20009;-73
2021/03/23 00:28:39;;;;;;;9.23;3.17;;;17.60;53.70;;;;;;1050486;28;20032;-73
2021/03/23 00:29:12;;;;;;;11.68;3.33;;;17.60;53.70;;;;;;1052127;28;20031;-72
2021/03/23 00:29:46;;;;;;;13.93;3.67;;;17.50;54.00;;;;;;1051153;28;20008;-73
2021/03/23 00:30:18;;;;;;;13.35;3.22;;;17.50;54.20;;;;;;1047688;28;20013;-74
2021/03/23 00:30:51;;;;;;;13.52;3.90;;;17.40;54.10;;;;;;1052026;28;20451;-74
2021/03/23 00:31:27;;;;;;;10.32;3.50;;;17.40;54.20;;;;;;1049362;28;20031;-74
2021/03/23 00:31:58;;;;;;;12.23;3.30;;;17.30;54.30;;;;;;1051385;28;20111;-74
2021/03/23 00:32:30;;;;;;;11.13;3.60;;;17.30;54.50;;;;;;1046963;28;20055;-73
2021/03/23 00:33:01;;;;;;;8.77;3.13;;;17.30;54.40;;;;;;1046250;28;20050;-73
2021/03/23 00:33:33;;;;;;;14.65;3.63;;;17.20;54.60;;;;;;1046469;28;20382;-74
2021/03/23 00:34:08;;;;;;;12.30;3.58;;;17.20;54.60;;;;;;1043691;28;20021;-73
2021/03/23 00:34:39;;;;;;;9.75;3.42;;;17.30;54.60;;;;;;1048018;28;20013;-73
2021/03/23 00:35:12;;;;;;;13.20;3.78;;;17.30;54.70;;;;;;1052781;28;20059;-73
2021/03/23 00:35:43;;;;;;;12.52;3.50;;;17.20;54.90;;;;;;1049550;28;20058;-73
2021/03/23 00:36:26;;;;;;;11.88;3.45;;;17.20;54.90;;;;;;1050213;28;20068;-73
2021/03/23 00:37:01;;;;;;;13.45;3.78;;;17.20;54.90;;;;;;1050668;28;20103;-73
2021/03/23 00:37:33;;;;;;;10.48;3.20;;;17.20;54.90;;;;;;1049653;28;20346;-73
2021/03/23 00:38:06;;;;;;;9.38;3.15;;;17.10;55.00;;;;;;1047863;28;20052;-73
2021/03/23 00:38:40;;;;;;;11.05;3.63;;;17.10;55.20;;;;;;1051788;28;20046;-73
2021/03/23 00:39:12;;;;;;;13.15;3.40;;;17.10;55.40;;;;;;1051088;28;20034;-73
2021/03/23 00:39:44;;;;;;;14.75;3.65;;;17.10;55.20;;;;;;1050787;28;20016;-73
2021/03/23 00:40:19;;;;;;;11.00;3.28;;;17.10;54.80;;;;;;1049237;28;20025;-73
2021/03/23 00:40:52;;;;;;;9.60;3.10;;;17.10;55.00;;;;;;1046436;28;20013;-73
2021/03/23 00:41:24;;;;;;;11.32;3.30;;;17.10;55.00;;;;;;1046330;28;20024;-73
2021/03/23 00:41:55;;;;;;;9.60;3.20;;;17.10;54.90;;;;;;1047178;28;20023;-73
2021/03/23 00:42:27;;;;;;;10.93;3.47;;;17.10;55.10;;;;;;1043535;28;20047;-73
2021/03/23 00:43:01;;;;;;;10.43;3.45;;;17.10;55.20;;;;;;1046808;28;20028;-73
2021/03/23 00:43:33;;;;;;;10.70;3.08;;;17.10;55.20;;;;;;1050027;28;20033;-73
2021/03/23 00:44:08;;;;;;;12.35;3.42;;;17.10;55.20;;;;;;1049816;28;20087;-73
2021/03/23 00:44:39;;;;;;;12.73;3.80;;;17.00;55.30;;;;;;1048492;28;20078;-73
2021/03/23 00:45:11;;;;;;;9.13;3.35;;;17.00;55.40;;;;;;1051190;28;20040;-73
2021/03/23 00:45:44;;;;;;;10.60;3.40;;;17.10;55.50;;;;;;1050798;28;20117;-73
2021/03/23 00:46:16;;;;;;;13.10;3.88;;;17.00;55.50;;;;;;1051590;28;20023;-73
2021/03/23 00:46:47;;;;;;;12.05;3.40;;;17.00;55.50;;;;;;1042793;28;20198;-73
2021/03/23 00:47:18;;;;;;;11.20;3.30;;;17.00;55.70;;;;;;1047516;28;20064;-73
2021/03/23 00:47:50;;;;;;;10.10;3.33;;;17.00;55.60;;;;;;1041092;28;20132;-73
2021/03/23 00:48:21;;;;;;;9.73;2.97;;;17.00;55.40;;;;;;1046150;28;20442;-73
2021/03/23 00:48:53;;;;;;;10.95;3.20;;;17.00;55.20;;;;;;1045002;28;20013;-73
2021/03/23 00:49:24;;;;;;;10.88;3.30;;;17.00;55.30;;;;;;1044634;28;20017;-73
2021/03/23 00:49:56;;;;;;;13.70;3.47;;;17.00;55.20;;;;;;1045098;28;20096;-73
2021/03/23 00:50:27;;;;;;;12.50;3.17;;;17.00;55.30;;;;;;1041036;28;20347;-73
2021/03/23 00:50:59;;;;;;;10.18;3.00;;;16.90;55.00;;;;;;1045812;28;20466;-74
2021/03/23 00:51:30;;;;;;;13.68;3.65;;;16.90;55.00;;;;;;1046944;28;20099;-73
2021/03/23 00:52:01;;;;;;;13.05;3.20;;;16.90;54.90;;;;;;1045683;28;20013;-73
2021/03/23 00:52:33;;;;;;;10.93;3.40;;;17.00;54.90;;;;;;1045508;28;20122;-73
2021/03/23 00:53:05;;;;;;;11.95;3.38;;;16.90;55.00;;;;;;1047705;28;20015;-72
2021/03/23 00:53:36;;;;;;;10.43;3.30;;;16.90;55.10;;;;;;1048172;28;20029;-73
2021/03/23 00:54:08;;;;;;;11.05;3.05;;;16.90;55.40;;;;;;1046421;28;20021;-73
2021/03/23 00:54:39;;;;;;;8.85;3.00;;;17.00;55.50;;;;;;1042201;28;20017;-73
2021/03/23 00:55:11;;;;;;;10.00;2.83;;;17.00;55.20;;;;;;1043704;28;20442;-73
2021/03/23 00:55:42;;;;;;;10.35;3.40;;;16.90;55.10;;;;;;1046409;28;20485;-73
2021/03/23 00:56:13;;;;;;;13.05;3.28;;;16.90;55.10;;;;;;1044527;28;20012;-72
2021/03/23 00:56:45;;;;;;;10.30;3.20;;;16.90;55.00;;;;;;1052098;28;20054;-73
2021/03/23 00:57:16;;;;;;;10.48;3.33;;;16.90;55.10;;;;;;1046671;28;20043;-73
2021/03/23 00:57:48;;;;;;;11.95;3.15;;;16.90;55.30;;;;;;1045680;28;20077;-73
2021/03/23 00:58:19;;;;;;;9.48;3.00;;;16.90;55.20;;;;;;1050429;28;20021;-73
2021/03/23 00:58:51;;;;;;;11.43;3.10;;;16.90;55.30;;;;;;1050079;28;20049;-73
2021/03/23 00:59:22;;;;;;;9.55;3.10;;;17.00;55.00;;;;;;1050317;28;20059;-74
2021/03/23 00:59:54;;;;;;;10.80;3.10;;;17.00;55.40;;;;;;1045780;28;20027;-74
2021/03/23 01:00:26;;;;;;;11.00;3.60;;;16.90;54.80;;;;;;1043788;28;20050;-73
2021/03/23 01:00:57;;;;;;;12.48;3.25;;;16.90;54.60;;;;;;1042205;28;20436;-73
2021/03/23 01:01:29;;;;;;;9.32;3.10;;;16.80;54.60;;;;;;1047593;28;20017;-73
2021/03/23 01:02:00;;;;;;;9.20;3.00;;;16.80;54.80;;;;;;1046177;28;20013;-73
2021/03/23 01:02:32;;;;;;;12.75;3.22;;;16.80;54.90;;;;;;1047201;28;20012;-74
2021/03/23 01:03:03;;;;;;;8.15;2.90;;;16.80;54.90;;;;;;1047871;28;20020;-74
2021/03/23 01:03:35;;;;;;;11.68;3.35;;;16.80;55.00;;;;;;1047041;28;20024;-74
2021/03/23 01:04:06;;;;;;;13.43;3.38;;;16.80;55.00;;;;;;1046319;28;20019;-74
2021/03/23 01:04:38;;;;;;;10.98;2.97;;;16.80;55.00;;;;;;1046217;28;20013;-73
2021/03/23 01:05:11;;;;;;;14.15;3.60;;;16.90;54.90;;;;;;1048019;28;20142;-73
2021/03/23 01:05:43;;;;;;;11.18;2.90;;;16.80;54.80;;;;;;1046775;28;20035;-73
2021/03/23 01:06:15;;;;;;;9.32;3.20;;;16.80;54.80;;;;;;1051450;28;20009;-73
2021/03/23 01:06:46;;;;;;;8.88;3.15;;;16.80;54.80;;;;;;1050866;28;20469;-74
2021/03/23 01:07:18;;;;;;;10.73;3.17;;;16.80;54.90;;;;;;1044757;28;20017;-74
2021/03/23 01:07:49;;;;;;;10.07;3.13;;;16.80;55.00;;;;;;1043831;28;20019;-74
2021/03/23 01:08:21;;;;;;;11.00;3.05;;;16.70;55.00;;;;;;1043441;28;20051;-73
2021/03/23 01:08:52;;;;;;;11.65;3.65;;;16.80;55.10;;;;;;1042895;28;20029;-74
2021/03/23 01:09:23;;;;;;;8.98;3.03;;;16.70;55.10;;;;;;1041738;28;20041;-73
2021/03/23 01:09:55;;;;;;;12.38;3.45;;;16.70;55.30;;;;;;1043368;28;20474;-73
2021/03/23 01:10:28;;;;;;;12.57;3.40;;;16.70;55.30;;;;;;1046744;28;20397;-73
2021/03/23 01:11:00;;;;;;;14.18;3.42;;;16.70;55.40;;;;;;1048539;28;20026;-72
2021/03/23 01:11:32;;;;;;;10.27;2.90;;;16.70;55.50;;;;;;1051214;28;20397;-73
2021/03/23 01:12:05;;;;;;;11.60;3.50;;;16.70;55.50;;;;;;1052354;28;20019;-73
2021/03/23 01:12:37;;;;;;;9.85;2.97;;;16.70;55.60;;;;;;1049598;28;20031;-74
2021/03/23 01:13:09;;;;;;;11.85;3.13;;;16.70;55.50;;;;;;1050277;28;20082;-74
2021/03/23 01:13:40;;;;;;;12.45;3.38;;;16.60;55.30;;;;;;1050950;28;20027;-74
2021/03/23 01:14:11;;;;;;;11.60;3.13;;;16.60;55.40;;;;;;1051634;28;20394;-73
2021/03/23 01:14:43;;;;;;;9.93;3.08;;;16.60;55.60;;;;;;1052070;28;20009;-74
2021/03/23 01:15:18;;;;;;;12.43;3.40;;;16.60;55.60;;;;;;1050504;28;20026;-74
2021/03/23 01:15:49;;;;;;;12.38;3.40;;;16.60;55.70;;;;;;1049100;28;20095;-74
2021/03/23 01:16:21;;;;;;;10.43;3.50;;;16.60;55.90;;;;;;1050805;28;20025;-74
2021/03/23 01:16:52;;;;;;;8.35;3.10;;;16.60;56.00;;;;;;1046768;28;20024;-73
2021/03/23 01:17:24;;;;;;;10.63;3.20;;;16.60;56.00;;;;;;1046106;28;20355;-73
2021/03/23 01:17:55;;;;;;;9.57;3.00;;;16.50;56.00;;;;;;1044562;28;20021;-74
2021/03/23 01:18:27;;;;;;;11.35;3.15;;;16.60;55.90;;;;;;1046901;28;20021;-74
2021/03/23 01:19:00;;;;;;;14.02;3.05;;;16.60;55.70;;;;;;1046995;28;20023;-73
2021/03/23 01:19:32;;;;;;;12.25;3.47;;;16.60;55.70;;;;;;1044514;28;20086;-74
2021/03/23 01:20:05;;;;;;;9.45;3.00;;;16.60;55.80;;;;;;1048668;28;20021;-74
2021/03/23 01:20:37;;;;;;;11.02;3.20;;;16.50;55.90;;;;;;1045891;28;20103;-73
2021/03/23 01:21:08;;;;;;;10.50;3.30;;;16.50;56.00;;;;;;1047061;28;20036;-74
2021/03/23 01:21:40;;;;;;;8.25;2.92;;;16.50;56.00;;;;;;1043825;28;20358;-74
2021/03/23 01:22:11;;;;;;;11.77;3.40;;;16.50;55.70;;;;;;1046067;28;20461;-73
2021/03/23 01:22:43;;;;;;;12.13;3.63;;;16.50;55.70;;;;;;1053064;28;20362;-74
2021/03/23 01:23:14;;;;;;;11.38;3.40;;;16.60;55.80;;;;;;1048298;28;20043;-73
2021/03/23 01:23:46;;;;;;;10.27;3.33;;;16.60;56.40;;;;;;1052214;28;20024;-73
2021/03/23 01:24:17;;;;;;;11.60;3.38;;;16.50;55.60;;;;;;1050133;28;20063;-73
2021/03/23 01:24:49;;;;;;;10.00;3.28;;;16.50;55.70;;;;;;1048676;28;20351;-73
2021/03/23 01:25:22;;;;;;;10.10;3.10;;;16.50;55.90;;;;;;1047803;28;20013;-73
2021/03/23 01:25:53;;;;;;;8.20;3.00;;;16.50;56.00;;;;;;1045922;28;20486;-73
2021/03/23 01:26:25;;;;;;;9.85;3.28;;;16.50;56.00;;;;;;1048927;28;20458;-74
2021/03/23 01:26:56;;;;;;;10.38;3.10;;;16.40;56.20;;;;;;1046610;28;20021;-74
2021/03/23 01:27:28;;;;;;;12.60;3.15;;;16.40;56.20;;;;;;1049107;28;20035;-73
2021/03/23 01:27:59;;;;;;;12.88;3.60;;;16.40;56.10;;;;;;1051058;28;20027;-74
2021/03/23 01:28:30;;;;;;;11.48;3.05;;;16.40;56.20;;;;;;1044806;28;20021;-74
2021/03/23 01:29:02;;;;;;;11.50;3.47;;;16.40;56.30;;;;;;1042285;28;20029;-74
2021/03/23 01:29:33;;;;;;;13.35;3.65;;;16.30;56.10;;;;;;1046385;28;20013;-74
2021/03/23 01:30:07;;;;;;;11.93;3.60;;;16.30;56.20;;;;;;1044018;28;20018;-73
2021/03/23 01:30:39;;;;;;;15.63;4.68;;;16.30;56.40;;;;;;1050088;28;20024;-73
2021/03/23 01:31:10;;;;;;;9.45;3.35;;;16.30;56.40;;;;;;1050780;28;20019;-74
2021/03/23 01:31:42;;;;;;;11.68;3.60;;;16.30;56.60;;;;;;1050222;28;20021;-73
2021/03/23 01:32:13;;;;;;;12.00;3.60;;;16.30;56.60;;;;;;1049326;28;20485;-73
2021/03/23 01:32:45;;;;;;;14.13;3.58;;;16.30;56.50;;;;;;1050683;28;20052;-73
2021/03/23 01:33:16;;;;;;;10.75;3.25;;;16.20;56.30;;;;;;1048404;28;20023;-72
2021/03/23 01:33:48;;;;;;;11.32;3.25;;;16.20;56.40;;;;;;1048783;28;21673;-73
2021/03/23 01:34:19;;;;;;;13.93;3.80;;;16.20;56.40;;;;;;1049397;28;20028;-73
2021/03/23 01:34:51;;;;;;;13.02;3.40;;;16.20;56.30;;;;;;1049638;28;20024;-73
2021/03/23 01:35:24;;;;;;;10.90;3.40;;;16.20;56.40;;;;;;1049336;28;20020;-72
2021/03/23 01:35:55;;;;;;;11.30;3.50;;;16.20;56.50;;;;;;1048872;28;20020;-72
2021/03/23 01:36:27;;;;;;;11.52;3.58;;;16.20;56.60;;;;;;1050885;28;20473;-73
2021/03/23 01:36:58;;;;;;;12.57;3.63;;;16.20;56.40;;;;;;1046455;28;20484;-73
2021/03/23 01:37:30;;;;;;;10.57;3.35;;;16.20;56.50;;;;;;1046255;28;20879;-73
2021/03/23 01:38:01;;;;;;;13.98;3.40;;;16.20;56.60;;;;;;1049021;28;20098;-73
2021/03/23 01:38:33;;;;;;;13.27;3.33;;;16.20;56.60;;;;;;1050448;28;20073;-73
2021/03/23 01:39:05;;;;;;;12.98;3.53;;;16.20;56.20;;;;;;1046409;28;20482;-73
2021/03/23 01:39:37;;;;;;;11.70;3.17;;;16.20;56.80;;;;;;1045522;28;20028;-73
2021/03/23 01:40:13;;;;;;;10.38;3.53;;;16.10;56.10;;;;;;1046537;28;20009;-73
2021/03/23 01:40:44;;;;;;;13.30;3.40;;;16.20;56.20;;;;;;1052101;28;20027;-73
2021/03/23 01:41:16;;;;;;;11.88;3.85;;;16.20;56.30;;;;;;1049641;28;20021;-73
2021/03/23 01:41:47;;;;;;;12.93;3.50;;;16.10;56.40;;;;;;1051185;28;20350;-73
2021/03/23 01:42:20;;;;;;;11.05;3.47;;;16.10;56.50;;;;;;1049975;28;20012;-73
2021/03/23 01:43:01;;;;;;;12.90;4.45;;;16.10;56.50;;;;;;1050349;28;20461;-73
2021/03/23 01:43:37;;;;;;;12.82;4.05;;;16.10;56.50;;;;;;1049008;28;20104;-73
2021/03/23 01:44:08;;;;;;;13.98;4.32;;;16.10;56.50;;;;;;1050087;28;20016;-73
2021/03/23 01:44:46;;;;;;;14.52;3.88;;;16.10;56.70;;;;;;1049293;28;20021;-72
2021/03/23 01:45:25;;;;;;;12.73;3.75;;;16.10;56.80;;;;;;1048247;28;20020;-72
2021/03/23 01:45:59;;;;;;;14.25;3.80;;;16.10;56.90;;;;;;1045115;28;20470;-72
2021/03/23 01:46:40;;;;;;;12.32;3.42;;;16.10;56.90;;;;;;1044077;28;20063;-72
2021/03/23 01:47:11;;;;;;;;;;;16.10;56.70;;;;;;1045823;28;20017;-73
2021/03/23 01:47:42;;;;;;;13.10;3.60;;;16.10;57.30;;;;;;1044266;28;20243;-73
2021/03/23 01:48:21;;;;;;;14.00;3.70;;;16.10;56.70;;;;;;1044872;28;20051;-74
2021/03/23 01:48:53;;;;;;;10.82;3.63;;;16.00;56.80;;;;;;1041097;28;20044;-74
2021/03/23 01:49:45;;;;;;;10.80;3.20;;;16.00;56.80;;;;;;1046114;28;20105;-74
2021/03/23 01:50:17;;;;;;;13.25;3.60;;;16.00;57.00;;;;;;1053542;28;20487;-75
2021/03/23 01:50:53;;;;;;;11.15;3.28;;;15.90;57.10;;;;;;1053673;28;20017;-75
2021/03/23 01:51:24;;;;;;;12.77;3.53;;;15.90;57.60;;;;;;1054113;28;20019;-74
2021/03/23 01:52:00;;;;;;;13.18;3.58;;;15.90;57.10;;;;;;1053592;28;20111;-74
2021/03/23 01:52:32;;;;;;;12.07;3.40;;;15.80;57.20;;;;;;1052176;28;20027;-74
2021/03/23 01:53:10;;;;;;;13.13;3.40;;;15.80;57.20;;;;;;1051518;28;20017;-74
2021/03/23 01:53:49;;;;;;;11.57;3.60;;;15.80;57.40;;;;;;1052332;28;20012;-74
2021/03/23 01:54:34;;;;;;;12.27;3.40;;;15.90;57.40;;;;;;1048627;28;20021;-74
2021/03/23 01:55:08;;;;;;;12.55;3.42;;;15.90;57.50;;;;;;1051530;28;20020;-74
2021/03/23 01:55:40;;;;;;;16.00;3.72;;;15.80;57.60;;;;;;1045025;28;20020;-74
2021/03/23 01:56:14;;;;;;;13.15;3.55;;;15.80;57.60;;;;;;1048809;28;20017;-74
2021/03/23 01:56:48;;;;;;;12.90;3.67;;;15.70;57.70;;;;;;1041423;28;20502;-73
2021/03/23 01:57:19;;;;;;;15.40;3.78;;;15.70;57.90;;;;;;1042630;28;20080;-74
2021/03/23 01:57:52;;;;;;;13.07;3.50;;;15.70;58.00;;;;;;1048227;28;20032;-74
2021/03/23 01:58:23;;;;;;;10.88;3.42;;;15.70;58.20;;;;;;1046475;28;20409;-73
2021/03/23 01:58:55;;;;;;;16.10;3.60;;;15.60;58.20;;;;;;1041075;28;20026;-73
2021/03/23 01:59:29;;;;;;;10.18;3.53;;;15.60;58.30;;;;;;1041447;28;20041;-74
2021/03/23 02:00:01;;;;;;;15.15;3.67;;;15.60;58.30;;;;;;1046210;28;20507;-74
2021/03/23 02:00:33;;;;;;;10.40;3.70;;;15.60;58.50;;;;;;1050099;28;20104;-74
2021/03/23 02:01:07;;;;;;;11.73;3.60;;;15.60;58.50;;;;;;1049126;28;20013;-74
2021/03/23 02:01:38;;;;;;;11.57;3.40;;;15.60;58.60;;;;;;1049738;28;20021;-74
2021/03/23 02:02:11;;;;;;;13.50;3.63;;;15.60;58.50;;;;;;1048837;28;20017;-74
2021/03/23 02:02:42;;;;;;;13.27;3.63;;;15.60;58.50;;;;;;1050372;28;20023;-75
2021/03/23 02:03:14;;;;;;;12.60;3.58;;;15.60;58.60;;;;;;1048890;28;20060;-74
2021/03/23 02:03:48;;;;;;;11.20;3.53;;;15.60;58.50;;;;;;1049561;28;20016;-74
2021/03/23 02:04:19;;;;;;;12.15;3.55;;;15.60;58.50;;;;;;1053186;28;20450;-74
2021/03/23 02:04:51;;;;;;;17.38;3.90;;;15.50;58.50;;;;;;1048287;28;20400;-74
2021/03/23 02:05:28;;;;;;;15.45;4.15;;;15.50;58.60;;;;;;1046996;28;20059;-74
2021/03/23 02:06:02;;;;;;;15.32;3.67;;;15.50;58.70;;;;;;1044977;28;20112;-74
2021/03/23 02:06:35;;;;;;;19.15;4.00;;;15.50;58.90;;;;;;1044676;28;20035;-74
2021/03/23 02:07:06;;;;;;;9.90;3.50;;;15.50;58.90;;;;;;1044871;28;20107;-74
2021/03/23 02:07:41;;;;;;;14.15;3.67;;;15.50;58.90;;;;;;1048861;28;20027;-74
2021/03/23 02:08:12;;;;;;;11.48;3.60;;;15.40;59.00;;;;;;1044664;28;20028;-74
2021/03/23 02:08:43;;;;;;;13.02;3.78;;;15.40;59.00;;;;;;1045620;28;20039;-75
2021/03/23 02:09:26;;;;;;;12.52;3.60;;;15.40;59.00;;;;;;1043137;28;20049;-73
2021/03/23 02:09:58;;;;;;;14.07;3.53;;;15.40;59.10;;;;;;1051611;28;20077;-73
2021/03/23 02:10:30;;;;;;;13.45;3.70;;;15.30;59.10;;;;;;1048224;28;20031;-73
2021/03/23 02:11:02;;;;;;;14.10;3.80;;;15.30;59.10;;;;;;1046871;28;20039;-75
2021/03/23 02:11:40;;;;;;;13.88;3.53;;;15.30;59.20;;;;;;1052268;28;20354;-75
2021/03/23 02:12:18;;;;;;;12.25;3.78;;;15.20;59.20;;;;;;1043023;28;20017;-75
2021/03/23 02:12:51;;;;;;;11.57;3.53;;;15.20;59.30;;;;;;1046724;28;20040;-75
2021/03/23 02:13:24;;;;;;;12.40;3.42;;;15.20;59.30;;;;;;1051949;28;20091;-75
2021/03/23 02:13:57;;;;;;;11.10;3.70;;;15.20;59.30;;;;;;1050380;28;20009;-75
2021/03/23 02:14:37;;;;;;;12.45;3.30;;;15.20;59.40;;;;;;1053093;28;20016;-75
2021/03/23 02:15:09;;;;;;;;;;;15.20;59.40;;;;;;1046569;28;20005;-74
2021/03/23 02:15:40;;;;;;;12.40;3.10;;;15.20;59.40;;;;;;1052442;28;20327;-74
2021/03/23 02:16:12;;;;;;;11.15;3.30;;;15.20;59.40;;;;;;1051025;28;20343;-74
2021/03/23 02:16:45;;;;;;;13.52;3.70;;;15.10;59.50;;;;;;1050603;28;20009;-75
2021/03/23 02:17:35;;;;;;;12.98;3.30;;;15.10;59.50;;;;;;1049813;28;20025;-74
2021/03/23 02:18:16;;;;;;;9.55;3.47;;;15.00;59.40;;;;;;1049881;28;20012;-74
2021/03/23 02:18:47;;;;;;;;;;;15.00;59.70;;;;;;1052045;28;20023;-74
2021/03/23 02:19:22;;;;;;;13.00;3.45;;;15.00;59.80;;;;;;1052045;28;19919;-75
2021/03/23 02:19:55;;;;;;;14.38;3.65;;;15.00;59.80;;;;;;1050563;28;20016;-75
2021/03/23 02:20:26;;;;;;;13.15;3.80;;;15.00;60.00;;;;;;1052435;28;20039;-74
2021/03/23 02:21:07;;;;;;;11.90;3.58;;;15.00;59.90;;;;;;1050493;28;20016;-74
2021/03/23 02:21:38;;;;;;;;;;;14.90;60.10;;;;;;1049742;28;20339;-74
2021/03/23 02:22:31;;;;;;;12.40;3.50;;;15.00;60.30;;;;;;1052068;28;19934;-75
2021/03/23 02:23:09;;;;;;;12.25;3.38;;;14.90;60.40;;;;;;1053199;28;20394;-74
2021/03/23 02:23:50;;;;;;;10.95;3.40;;;14.90;60.60;;;;;;1053877;28;20360;-75
2021/03/23 02:24:22;;;;;;;13.63;3.50;;;14.80;60.60;;;;;;1045437;28;20434;-75
2021/03/23 02:24:53;;;;;;;11.95;3.92;;;14.70;60.80;;;;;;1050529;28;20066;-74
2021/03/23 02:25:25;;;;;;;13.07;3.47;;;14.70;61.00;;;;;;1050090;28;20576;-74
2021/03/23 02:25:57;;;;;;;13.02;3.80;;;14.70;61.00;;;;;;1052310;28;20039;-74
2021/03/23 02:26:35;;;;;;;12.95;3.53;;;14.70;61.10;;;;;;1048412;28;20043;-75
2021/03/23 02:27:07;;;;;;;11.60;3.70;;;14.70;61.20;;;;;;1048895;28;20043;-75
2021/03/23 02:27:39;;;;;;;11.18;3.30;;;14.70;61.30;;;;;;1047612;28;20030;-75
2021/03/23 02:28:10;;;;;;;13.43;3.85;;;14.70;61.30;;;;;;1049712;28;20400;-76
2021/03/23 02:28:52;;;;;;;13.38;3.95;;;14.70;61.30;;;;;;1051734;28;20440;-76
2021/03/23 02:29:23;;;;;;;11.77;3.38;;;14.60;61.40;;;;;;1051104;28;20024;-75
2021/03/23 02:29:59;;;;;;;10.15;3.40;;;14.60;61.50;;;;;;1051602;28;20061;-75
2021/03/23 02:30:40;;;;;;;14.35;3.65;;;14.60;61.50;;;;;;1050472;28;20031;-74
2021/03/23 02:31:11;;;;;;;15.88;3.78;;;14.60;62.10;;;;;;1049314;28;20028;-74
2021/03/23 02:31:49;;;;;;;14.45;3.47;;;14.60;61.60;;;;;;1046651;28;20081;-74
2021/03/23 02:32:21;;;;;;;9.25;3.25;;;14.60;61.70;;;;;;1045710;28;20032;-74
2021/03/23 02:32:52;;;;;;;13.07;3.60;;;14.60;61.70;;;;;;1051180;28;20507;-74
2021/03/23 02:33:24;;;;;;;13.63;3.55;;;14.50;61.50;;;;;;1049583;28;20016;-75
2021/03/23 02:33:57;;;;;;;12.45;3.58;;;14.50;61.70;;;;;;1048614;28;20477;-74
2021/03/23 02:34:29;;;;;;;13.55;3.67;;;14.50;61.60;;;;;;1046492;28;20028;-74
2021/03/23 02:35:00;;;;;;;11.32;3.55;;;14.60;61.70;;;;;;1049044;28;20025;-73
2021/03/23 02:35:33;;;;;;;10.75;3.22;;;14.60;61.60;;;;;;1050772;28;20092;-74
2021/03/23 02:36:04;;;;;;;11.45;3.22;;;14.60;61.60;;;;;;1050372;28;20085;-74
2021/03/23 02:36:40;;;;;;;14.57;3.30;;;14.60;61.70;;;;;;1051974;28;20352;-75
2021/03/23 02:37:11;;;;;;;11.05;3.25;;;14.50;61.70;;;;;;1050730;28;20081;-75
2021/03/23 02:37:42;;;;;;;13.32;3.40;;;14.50;61.80;;;;;;1047964;28;20053;-74
2021/03/23 02:38:14;;;;;;;12.98;3.50;;;14.50;61.80;;;;;;1053488;28;20028;-74
2021/03/23 02:38:46;;;;;;;12.40;3.50;;;14.50;62.00;;;;;;1051967;28;20016;-75
2021/03/23 02:39:24;;;;;;;11.02;3.78;;;14.50;62.00;;;;;;1050885;28;20062;-75
2021/03/23 02:39:55;;;;;;;12.50;3.30;;;14.50;62.10;;;;;;1047961;28;20407;-75
2021/03/23 02:40:28;;;;;;;12.75;3.47;;;14.40;62.20;;;;;;1048517;28;20051;-74
2021/03/23 02:40:59;;;;;;;12.13;3.17;;;14.40;62.30;;;;;;1041568;28;20021;-75
2021/03/23 02:41:31;;;;;;;12.07;3.25;;;14.40;62.40;;;;;;1048445;28;20425;-74
2021/03/23 02:42:04;;;;;;;15.07;3.50;;;14.40;62.50;;;;;;1046279;28;20062;-74
2021/03/23 02:42:35;;;;;;;12.38;3.30;;;14.40;62.50;;;;;;1044573;28;20028;-74
2021/03/23 02:43:07;;;;;;;11.85;3.20;;;14.50;62.60;;;;;;1043865;28;20051;-74
2021/03/23 02:43:38;;;;;;;11.25;3.10;;;14.50;62.50;;;;;;1045636;28;20016;-74
2021/03/23 02:44:10;;;;;;;12.55;3.47;;;14.40;62.50;;;;;;1049872;28;20090;-74
2021/03/23 02:44:45;;;;;;;12.63;3.40;;;14.40;62.70;;;;;;1046436;28;20017;-73
2021/03/23 02:45:17;;;;;;;11.23;3.33;;;14.40;62.80;;;;;;1052113;28;20020;-74
2021/03/23 02:45:55;;;;;;;10.43;3.50;;;14.40;62.90;;;;;;1052607;28;20030;-74
2021/03/23 02:46:27;;;;;;;15.25;3.30;;;14.40;62.90;;;;;;1051970;28;20373;-74
2021/03/23 02:46:58;;;;;;;11.80;3.42;;;14.30;63.00;;;;;;1049536;28;20020;-75
2021/03/23 02:47:29;;;;;;;11.93;3.70;;;14.30;63.10;;;;;;1049796;28;20473;-75
2021/03/23 02:48:01;;;;;;;17.05;3.63;;;14.40;63.30;;;;;;1049875;28;20470;-74
2021/03/23 02:48:32;;;;;;;12.13;3.70;;;14.40;63.30;;;;;;1049577;28;20021;-74
2021/03/23 02:49:05;;;;;;;10.40;3.28;;;14.40;63.40;;;;;;1046648;28;20028;-73
2021/03/23 02:49:36;;;;;;;12.55;3.78;;;14.30;63.40;;;;;;1044548;28;20140;-74
2021/03/23 02:50:08;;;;;;;11.93;3.55;;;14.30;63.40;;;;;;1043718;28;20028;-74
2021/03/23 02:50:40;;;;;;;10.57;3.33;;;14.30;63.60;;;;;;1039244;28;20022;-75